createdAt,value
2018-02-16T00:00:03.410Z,101226.86
2018-02-16T00:02:32.309Z,101228.81
2018-02-16T00:05:01.407Z,101224.42
2018-02-16T00:07:30.542Z,101218.49
2018-02-16T00:09:59.810Z,101220.05
2018-02-16T00:12:29.821Z,101211.11
2018-02-16T00:14:58.848Z,101207.45
2018-02-16T00:17:27.940Z,101205.89
2018-02-16T00:19:57.118Z,101219.98
2018-02-16T00:22:26.198Z,101217.70
2018-02-16T00:24:55.299Z,101218.40
2018-02-16T00:27:25.933Z,101221.50
2018-02-16T00:29:55.063Z,101223.48
2018-02-16T00:32:24.020Z,101225.48
2018-02-16T00:34:53.982Z,101235.52
2018-02-16T00:37:23.134Z,101232.11
2018-02-16T00:39:52.232Z,101226.74
2018-02-16T00:42:23.680Z,101236.08
2018-02-16T00:44:52.777Z,101216.09
2018-02-16T00:47:21.771Z,101230.10
2018-02-16T00:49:51.705Z,101230.56
2018-02-16T00:52:20.687Z,101229.25
2018-02-16T00:54:50.715Z,101233.93
2018-02-16T00:57:21.734Z,101224.50
2018-02-16T00:59:51.108Z,101226.22
2018-02-16T01:02:23.494Z,101229.91
2018-02-16T01:04:52.510Z,101225.98
2018-02-16T01:07:21.607Z,101215.63
2018-02-16T01:09:51.956Z,101227.83
2018-02-16T01:12:20.929Z,101218.83
2018-02-16T01:14:50.725Z,101227.27
2018-02-16T01:17:25.064Z,101227.11
2018-02-16T01:19:54.029Z,101219.13
2018-02-16T01:22:24.196Z,101217.57
2018-02-16T01:24:55.388Z,101218.20
2018-02-16T01:27:24.655Z,101221.00
2018-02-16T01:29:53.576Z,101220.23
2018-02-16T01:32:23.735Z,101212.53
2018-02-16T01:34:52.725Z,101218.33
2018-02-16T01:37:21.923Z,101218.36
2018-02-16T01:39:51.224Z,101223.80
2018-02-16T01:42:20.217Z,101224.69
2018-02-16T01:44:49.212Z,101224.66
2018-02-16T01:47:19.065Z,101215.30
2018-02-16T01:50:00.730Z,101208.70
2018-02-16T01:52:31.453Z,101225.12
2018-02-16T01:55:00.542Z,101223.08
2018-02-16T01:57:30.305Z,101215.53
2018-02-16T01:59:59.594Z,101222.91
2018-02-16T02:02:30.346Z,101221.23
2018-02-16T02:04:59.331Z,101226.98
2018-02-16T02:07:28.999Z,101217.73
2018-02-16T02:09:58.299Z,101226.02
2018-02-16T02:12:27.554Z,101207.31
2018-02-16T02:14:57.367Z,101235.84
2018-02-16T02:17:26.299Z,101219.87
2018-02-16T02:19:55.401Z,101224.33
2018-02-16T02:22:24.600Z,101230.89
2018-02-16T02:24:53.495Z,101226.61
2018-02-16T02:27:22.676Z,101241.97
2018-02-16T02:29:54.344Z,101227.45
2018-02-16T02:32:23.450Z,101238.83
2018-02-16T02:34:52.438Z,101244.50
2018-02-16T02:37:23.207Z,101239.36
2018-02-16T02:39:52.268Z,101237.73
2018-02-16T02:42:21.266Z,101249.39
2018-02-16T02:44:54.972Z,101254.86
2018-02-16T02:47:23.974Z,101255.69
2018-02-16T02:49:55.812Z,101249.84
2018-02-16T02:52:24.844Z,101260.10
2018-02-16T02:54:53.912Z,101258.46
2018-02-16T02:57:23.071Z,101271.19
2018-02-16T02:59:52.129Z,101257.57
2018-02-16T03:02:21.097Z,101265.13
2018-02-16T03:04:51.717Z,101266.27
2018-02-16T03:07:20.734Z,101266.57
2018-02-16T03:09:49.918Z,101270.27
2018-02-16T03:12:19.030Z,101269.56
2018-02-16T03:14:47.944Z,101279.11
2018-02-16T03:17:17.140Z,101277.16
2018-02-16T03:19:49.098Z,101291.36
2018-02-16T03:22:18.064Z,101284.89
2018-02-16T03:24:47.054Z,101281.86
2018-02-16T03:27:16.256Z,101272.71
2018-02-16T03:29:45.475Z,101276.17
2018-02-16T03:32:14.374Z,101294.47
2018-02-16T03:34:43.390Z,101265.92
2018-02-16T03:37:12.482Z,101274.70
2018-02-16T03:39:42.503Z,101275.34
2018-02-16T03:42:12.377Z,101267.23
2018-02-16T03:44:41.298Z,101279.48
2018-02-16T03:47:10.354Z,101289.58
2018-02-16T03:49:43.855Z,101290.44
2018-02-16T03:52:12.954Z,101284.23
2018-02-16T03:54:42.099Z,101288.81
2018-02-16T03:57:11.570Z,101294.33
2018-02-16T03:59:40.546Z,101290.80
2018-02-16T04:02:10.050Z,101301.45
2018-02-16T04:04:38.989Z,101294.36
2018-02-16T04:07:09.373Z,101306.90
2018-02-16T04:09:38.395Z,101300.56
2018-02-16T04:12:07.574Z,101301.42
2018-02-16T04:14:36.594Z,101311.52
2018-02-16T04:17:05.590Z,101316.20
2018-02-16T04:19:35.356Z,101314.13
2018-02-16T04:22:04.357Z,101308.61
2018-02-16T04:24:33.489Z,101304.66
2018-02-16T04:27:05.119Z,101307.86
2018-02-16T04:29:34.105Z,101308.69
2018-02-16T04:32:04.355Z,101303.70
2018-02-16T04:34:35.136Z,101301.56
2018-02-16T04:37:04.169Z,101306.94
2018-02-16T04:39:34.390Z,101308.53
2018-02-16T04:42:04.699Z,101312.84
2018-02-16T04:44:33.793Z,101312.23
2018-02-16T04:47:02.692Z,101306.39
2018-02-16T04:49:31.773Z,101312.20
2018-02-16T04:52:00.788Z,101328.92
2018-02-16T04:54:31.515Z,101329.63
2018-02-16T04:57:00.722Z,101338.96
2018-02-16T04:59:29.689Z,101331.77
2018-02-16T05:01:58.799Z,101336.02
2018-02-16T05:04:28.149Z,101343.98
2018-02-16T05:06:57.102Z,101349.25
2018-02-16T05:09:26.197Z,101339.36
2018-02-16T05:11:56.367Z,101343.19
2018-02-16T05:14:25.332Z,101360.22
2018-02-16T05:16:54.392Z,101352.23
2018-02-16T05:19:23.782Z,101354.70
2018-02-16T05:21:52.670Z,101370.61
2018-02-16T05:24:21.637Z,101362.69
2018-02-16T05:26:50.907Z,101362.79
2018-02-16T05:29:20.204Z,101380.41
2018-02-16T05:31:49.188Z,101369.35
2018-02-16T05:34:19.283Z,101382.06
2018-02-16T05:36:48.232Z,101391.05
2018-02-16T05:39:17.299Z,101380.33
2018-02-16T05:41:47.280Z,101384.05
2018-02-16T05:44:16.245Z,101384.16
2018-02-16T05:46:45.815Z,101373.44
2018-02-16T05:49:15.019Z,101382.69
2018-02-16T05:51:43.903Z,101376.23
2018-02-16T05:54:13.004Z,101377.70
2018-02-16T05:56:42.207Z,101377.28
2018-02-16T05:59:12.016Z,101377.44
2018-02-16T06:01:41.825Z,101379.22
2018-02-16T06:04:10.957Z,101375.87
2018-02-16T06:06:40.719Z,101398.70
2018-02-16T06:09:09.943Z,101396.22
2018-02-16T06:11:40.604Z,101388.12
2018-02-16T06:14:10.682Z,101396.02
2018-02-16T06:16:39.684Z,101405.28
2018-02-16T06:19:10.577Z,101408.09
2018-02-16T06:21:40.233Z,101412.17
2018-02-16T06:24:09.512Z,101407.74
2018-02-16T06:26:39.039Z,101412.97
2018-02-16T06:29:08.231Z,101413.75
2018-02-16T06:31:38.184Z,101414.91
2018-02-16T06:34:10.194Z,101415.44
2018-02-16T06:36:39.379Z,101412.09
2018-02-16T06:39:09.223Z,101404.38
2018-02-16T06:41:38.419Z,101406.09
2018-02-16T06:44:07.621Z,101392.28
2018-02-16T06:46:38.292Z,101408.22
2018-02-16T06:49:08.587Z,101399.37
2018-02-16T06:51:38.427Z,101398.30
2018-02-16T06:54:10.155Z,101406.58
2018-02-16T06:56:39.253Z,101407.41
2018-02-16T06:59:08.302Z,101412.28
2018-02-16T07:01:37.677Z,101406.66
2018-02-16T07:04:06.749Z,101406.58
2018-02-16T07:06:36.717Z,101406.02
2018-02-16T07:09:06.762Z,101402.73
2018-02-16T07:11:35.872Z,101400.16
2018-02-16T07:14:04.940Z,101415.16
2018-02-16T07:16:35.690Z,101412.59
2018-02-16T07:19:04.701Z,101418.75
2018-02-16T07:21:33.694Z,101409.45
2018-02-16T07:24:03.783Z,101414.53
2018-02-16T07:26:32.856Z,101416.37
2018-02-16T07:29:01.800Z,101427.38
2018-02-16T07:31:33.932Z,101432.41
2018-02-16T07:34:02.777Z,101428.96
2018-02-16T07:36:31.647Z,101426.22
2018-02-16T07:39:02.386Z,101431.95
2018-02-16T07:41:32.294Z,101435.35
2018-02-16T07:44:01.276Z,101423.92
2018-02-16T07:46:30.697Z,101437.54
2018-02-16T07:48:59.726Z,101432.64
2018-02-16T07:51:29.244Z,101433.59
2018-02-16T07:53:58.390Z,101426.77
2018-02-16T07:56:28.304Z,101424.70
2018-02-16T07:58:57.313Z,101428.10
2018-02-16T08:01:27.323Z,101422.33
2018-02-16T08:03:56.604Z,101424.77
2018-02-16T08:06:28.308Z,101416.25
2018-02-16T08:08:57.783Z,101423.19
2018-02-16T08:11:26.881Z,101403.52
2018-02-16T08:13:56.065Z,101434.47
2018-02-16T08:16:25.273Z,101426.53
2018-02-16T08:18:54.371Z,101423.60
2018-02-16T08:21:27.880Z,101423.78
2018-02-16T08:23:56.887Z,101435.39
2018-02-16T08:26:26.265Z,101441.06
2018-02-16T08:28:55.474Z,101440.25
2018-02-16T08:31:25.388Z,101445.14
2018-02-16T08:33:54.459Z,101439.80
2018-02-16T08:36:24.239Z,101437.58
2018-02-16T08:38:53.372Z,101441.84
2018-02-16T08:41:24.740Z,101431.22
2018-02-16T08:43:54.612Z,101436.81
2018-02-16T08:46:24.129Z,101429.65
2018-02-16T08:48:53.252Z,101429.52
2018-02-16T08:51:25.736Z,101431.46
2018-02-16T08:53:54.744Z,101434.58
2018-02-16T08:56:23.768Z,101430.77
2018-02-16T08:58:52.917Z,101433.19
2018-02-16T09:01:22.090Z,101431.69
2018-02-16T09:03:51.214Z,101425.31
2018-02-16T09:06:21.892Z,101432.91
2018-02-16T09:08:50.878Z,101418.91
2018-02-16T09:11:20.002Z,101413.34
2018-02-16T09:13:50.655Z,101417.20
2018-02-16T09:16:20.384Z,101420.14
2018-02-16T09:18:49.473Z,101419.28
2018-02-16T09:21:19.595Z,101419.59
2018-02-16T09:23:48.727Z,101411.35
2018-02-16T09:26:17.790Z,101413.09
2018-02-16T09:28:46.996Z,101413.73
2018-02-16T09:31:16.294Z,101411.55
2018-02-16T09:33:45.387Z,101405.59
2018-02-16T09:36:16.845Z,101399.36
2018-02-16T09:38:46.045Z,101390.46
2018-02-16T09:41:15.134Z,101391.86
2018-02-16T09:43:45.146Z,101384.28
2018-02-16T09:46:14.861Z,101386.69
2018-02-16T09:48:43.932Z,101382.73
2018-02-16T09:51:13.067Z,101384.22
2018-02-16T09:53:43.066Z,101375.83
2018-02-16T09:56:16.625Z,101397.09
2018-02-16T09:58:45.563Z,101389.97
2018-02-16T10:01:14.661Z,101385.05
2018-02-16T10:03:43.757Z,101391.41
2018-02-16T10:06:12.701Z,101388.73
2018-02-16T10:08:41.651Z,101380.84
2018-02-16T10:11:11.307Z,101391.50
2018-02-16T10:13:40.240Z,101384.30
2018-02-16T10:16:09.547Z,101382.92
2018-02-16T10:18:39.468Z,101394.13
2018-02-16T10:21:08.663Z,101395.21
2018-02-16T10:23:37.958Z,101388.06
2018-02-16T10:26:07.741Z,101394.78
2018-02-16T10:28:37.455Z,101398.05
2018-02-16T10:31:08.322Z,101402.13
2018-02-16T10:33:38.308Z,101396.53
2018-02-16T10:36:07.332Z,101393.91
2018-02-16T10:38:36.327Z,101388.02
2018-02-16T10:41:05.639Z,101392.97
2018-02-16T10:43:34.828Z,101389.32
2018-02-16T10:46:04.717Z,101391.04
2018-02-16T10:48:35.375Z,101387.88
2018-02-16T10:51:05.318Z,101396.81
2018-02-16T10:53:35.205Z,101395.80
2018-02-16T10:56:04.408Z,101389.72
2018-02-16T10:58:34.117Z,101388.59
2018-02-16T11:01:08.583Z,101382.16
2018-02-16T11:03:39.191Z,101383.55
2018-02-16T11:06:13.222Z,101384.56
2018-02-16T11:08:50.859Z,101382.38
2018-02-16T11:11:20.628Z,101392.61
2018-02-16T11:13:49.721Z,101381.05
2018-02-16T11:16:19.437Z,101371.90
2018-02-16T11:18:48.596Z,101378.80
2018-02-16T11:21:17.586Z,101380.34
2018-02-16T11:23:48.270Z,101380.97
2018-02-16T11:26:17.315Z,101377.76
2018-02-16T11:28:46.348Z,101372.02
2018-02-16T11:31:15.311Z,101375.02
2018-02-16T11:33:45.018Z,101376.35
2018-02-16T11:36:14.012Z,101373.87
2018-02-16T11:38:42.945Z,101369.24
2018-02-16T11:41:11.978Z,101370.28
2018-02-16T11:43:40.921Z,101367.52
2018-02-16T11:46:10.028Z,101365.93
2018-02-16T11:48:41.639Z,101358.73
2018-02-16T11:51:10.739Z,101355.38
2018-02-16T11:53:39.844Z,101358.40
2018-02-16T11:56:11.283Z,101348.28
2018-02-16T11:58:40.278Z,101348.86
2018-02-16T12:01:09.272Z,101350.16
2018-02-16T12:03:41.744Z,101352.56
2018-02-16T12:06:10.650Z,101351.03
2018-02-16T12:08:39.766Z,101359.44
2018-02-16T12:11:08.839Z,101347.39
2018-02-16T12:13:38.561Z,101351.62
2018-02-16T12:16:07.762Z,101339.45
2018-02-16T12:18:36.917Z,101338.55
2018-02-16T12:21:05.994Z,101329.73
2018-02-16T12:23:34.941Z,101334.08
2018-02-16T12:26:04.743Z,101340.03
2018-02-16T12:28:33.840Z,101332.92
2018-02-16T12:31:03.688Z,101332.10
2018-02-16T12:33:32.883Z,101329.02
2018-02-16T12:36:02.122Z,101332.95
2018-02-16T12:38:32.279Z,101329.27
2018-02-16T12:43:36.507Z,101319.89
2018-02-16T12:46:05.649Z,101328.02
2018-02-16T12:48:35.627Z,101325.51
2018-02-16T12:51:04.821Z,101322.05
2018-02-16T12:53:33.913Z,101317.48
2018-02-16T12:56:04.559Z,101316.73
2018-02-16T12:58:33.542Z,101314.87
2018-02-16T13:01:02.634Z,101321.73
2018-02-16T13:03:31.906Z,101314.05
2018-02-16T13:06:01.652Z,101315.81
2018-02-16T13:08:30.742Z,101314.02
2018-02-16T13:11:00.759Z,101319.71
2018-02-16T13:13:29.964Z,101318.39
2018-02-16T13:15:59.052Z,101320.30
2018-02-16T13:18:28.254Z,101326.01
2018-02-16T13:20:57.452Z,101326.50
2018-02-16T13:23:26.551Z,101330.04
2018-02-16T13:25:55.788Z,101330.72
2018-02-16T13:28:24.849Z,101336.09
2018-02-16T13:30:54.053Z,101338.72
2018-02-16T13:33:25.597Z,101341.02
2018-02-16T13:35:54.596Z,101346.59
2018-02-16T13:38:23.998Z,101347.91
2018-02-16T13:40:53.193Z,101343.82
2018-02-16T13:43:22.315Z,101347.81
2018-02-16T13:45:51.388Z,101343.36
2018-02-16T13:48:22.252Z,101344.55
2018-02-16T13:50:52.260Z,101349.11
2018-02-16T13:53:21.924Z,101350.38
2018-02-16T13:55:51.144Z,101354.38
2018-02-16T13:58:21.115Z,101354.33
2018-02-16T14:00:51.089Z,101351.14
2018-02-16T14:03:21.952Z,101354.19
2018-02-16T14:05:51.103Z,101354.23
2018-02-16T14:08:20.112Z,101353.39
2018-02-16T14:10:52.027Z,101366.48
2018-02-16T14:13:20.966Z,101365.45
2018-02-16T14:15:50.040Z,101369.17
2018-02-16T14:18:19.168Z,101367.86
2018-02-16T14:20:49.415Z,101366.85
2018-02-16T14:23:18.487Z,101367.52
2018-02-16T14:25:48.554Z,101370.67
2018-02-16T14:28:17.638Z,101369.84
2018-02-16T14:30:48.615Z,101371.44
2018-02-16T14:33:18.347Z,101369.35
2018-02-16T14:35:47.349Z,101368.81
2018-02-16T14:38:16.460Z,101368.72
2018-02-16T14:40:46.565Z,101372.63
2018-02-16T14:43:16.984Z,101374.97
2018-02-16T14:45:46.091Z,101377.78
2018-02-16T14:48:15.398Z,101373.16
2018-02-16T14:50:44.502Z,101370.90
2018-02-16T14:53:13.470Z,101372.46
2018-02-16T14:55:42.769Z,101373.83
2018-02-16T14:58:11.768Z,101371.86
2018-02-16T15:00:41.527Z,101382.45
2018-02-16T15:03:10.721Z,101382.50
2018-02-16T15:05:39.815Z,101384.86
2018-02-16T15:08:08.913Z,101373.31
2018-02-16T15:10:38.270Z,101378.52
2018-02-16T15:13:07.262Z,101373.86
2018-02-16T15:15:36.363Z,101379.01
2018-02-16T15:18:07.181Z,101376.46
2018-02-16T15:20:37.265Z,101375.86
2018-02-16T15:23:06.260Z,101374.30
2018-02-16T15:25:37.003Z,101374.05
2018-02-16T15:28:06.040Z,101375.92
2018-02-16T15:30:35.561Z,101371.98
2018-02-16T15:33:06.093Z,101377.45
2018-02-16T15:35:35.174Z,101372.01
2018-02-16T15:38:04.243Z,101370.13
2018-02-16T15:40:33.507Z,101371.10
2018-02-16T15:43:03.675Z,101371.08
2018-02-16T15:45:32.795Z,101367.54
2018-02-16T15:48:01.989Z,101373.50
2018-02-16T15:50:31.194Z,101380.95
2018-02-16T15:53:00.316Z,101383.50
2018-02-16T15:55:29.499Z,101381.44
2018-02-16T15:57:58.759Z,101379.51
2018-02-16T16:00:27.606Z,101377.77
2018-02-16T16:02:59.292Z,101385.78
2018-02-16T16:05:29.088Z,101388.09
2018-02-16T16:07:57.980Z,101385.17
2018-02-16T16:10:28.975Z,101392.48
2018-02-16T16:12:59.091Z,101399.83
2018-02-16T16:15:28.210Z,101401.83
2018-02-16T16:18:00.357Z,101393.95
2018-02-16T16:20:30.749Z,101399.16
2018-02-16T16:22:59.781Z,101405.42
2018-02-16T16:25:29.000Z,101405.55
2018-02-16T16:27:58.121Z,101397.56
2018-02-16T16:30:27.237Z,101390.56
2018-02-16T16:32:56.319Z,101393.07
2018-02-16T16:35:25.504Z,101397.19
2018-02-16T16:37:55.328Z,101398.00
2018-02-16T16:40:24.488Z,101390.85
2018-02-16T16:42:53.618Z,101391.55
2018-02-16T16:45:22.714Z,101404.21
2018-02-16T16:47:52.596Z,101405.30
2018-02-16T16:50:26.401Z,101404.28
2018-02-16T16:52:57.531Z,101402.86
2018-02-16T16:55:26.725Z,101397.56
2018-02-16T16:57:55.783Z,101398.14
2018-02-16T17:00:25.030Z,101393.97
2018-02-16T17:02:54.122Z,101402.51
2018-02-16T17:05:23.413Z,101395.20
2018-02-16T17:07:53.279Z,101391.09
2018-02-16T17:10:22.228Z,101386.36
2018-02-16T17:12:51.341Z,101391.75
2018-02-16T17:15:20.793Z,101394.52
2018-02-16T17:17:49.887Z,101391.51
2018-02-16T17:20:18.877Z,101394.61
2018-02-16T17:22:52.478Z,101395.42
2018-02-16T17:25:21.944Z,101402.55
2018-02-16T17:27:51.137Z,101405.27
2018-02-16T17:30:20.403Z,101410.97
2018-02-16T17:32:49.593Z,101414.35
2018-02-16T17:35:18.729Z,101407.73
2018-02-16T17:37:51.534Z,101406.74
2018-02-16T17:40:20.797Z,101401.77
2018-02-16T17:42:50.168Z,101401.80
2018-02-16T17:45:19.260Z,101394.89
2018-02-16T17:47:48.353Z,101402.58
2018-02-16T17:50:17.586Z,101403.11
2018-02-16T17:52:47.947Z,101397.48
2018-02-16T17:55:17.114Z,101399.16
2018-02-16T17:57:46.214Z,101391.75
2018-02-16T18:00:16.174Z,101395.50
2018-02-16T18:02:45.224Z,101389.37
2018-02-16T18:05:14.533Z,101389.08
2018-02-16T18:07:43.633Z,101390.69
2018-02-16T18:10:13.638Z,101387.88
2018-02-16T18:12:42.858Z,101394.08
2018-02-16T18:15:14.095Z,101387.66
2018-02-16T18:17:43.494Z,101394.05
2018-02-16T18:20:12.793Z,101394.27
2018-02-16T18:22:42.868Z,101398.34
2018-02-16T18:25:12.102Z,101391.91
2018-02-16T18:27:41.512Z,101393.95
2018-02-16T18:30:10.797Z,101391.08
2018-02-16T18:32:40.223Z,101390.33
2018-02-16T18:35:09.600Z,101390.27
2018-02-16T18:37:39.787Z,101390.73
2018-02-16T18:40:09.059Z,101383.47
2018-02-16T18:42:39.542Z,101379.43
2018-02-16T18:45:09.996Z,101373.36
2018-02-16T18:47:39.296Z,101378.31
2018-02-16T18:50:08.812Z,101372.70
2018-02-16T18:52:38.223Z,101377.25
2018-02-16T18:55:07.736Z,101376.26
2018-02-16T18:57:37.126Z,101371.44
2018-02-16T19:00:07.648Z,101377.68
2018-02-16T19:02:38.549Z,101384.59
2018-02-16T19:05:08.139Z,101380.30
2018-02-16T19:07:37.562Z,101388.55
2018-02-16T19:10:08.383Z,101387.22
2018-02-16T19:12:37.602Z,101394.42
2018-02-16T19:15:07.099Z,101390.64
2018-02-16T19:17:36.615Z,101385.74
2018-02-16T19:20:06.043Z,101387.45
2018-02-16T19:22:36.346Z,101395.87
2018-02-16T19:25:05.740Z,101402.19
2018-02-16T19:27:35.988Z,101396.78
2018-02-16T19:30:09.536Z,101397.95
2018-02-16T19:32:43.216Z,101398.66
2018-02-16T19:35:14.830Z,101388.10
2018-02-16T19:37:44.225Z,101391.39
2018-02-16T19:40:13.226Z,101391.98
2018-02-16T19:42:44.228Z,101387.86
2018-02-16T19:45:14.248Z,101384.88
2018-02-16T19:47:43.680Z,101382.45
2018-02-16T19:50:12.793Z,101390.75
2018-02-16T19:52:41.811Z,101378.97
2018-02-16T19:55:12.804Z,101389.73
2018-02-16T19:57:44.267Z,101386.19
2018-02-16T20:00:14.321Z,101382.05
2018-02-16T20:02:43.749Z,101383.22
2018-02-16T20:05:13.007Z,101385.08
2018-02-16T20:07:43.015Z,101387.26
2018-02-16T20:10:12.499Z,101384.23
2018-02-16T20:12:41.861Z,101389.89
2018-02-16T20:15:13.918Z,101397.23
2018-02-16T20:17:47.178Z,101398.31
2018-02-16T20:20:16.516Z,101400.86
2018-02-16T20:22:45.720Z,101407.06
2018-02-16T20:25:18.491Z,101404.15
2018-02-16T20:27:47.659Z,101415.87
2018-02-16T20:30:16.852Z,101415.06
2018-02-16T20:32:47.663Z,101423.21
2018-02-16T20:35:16.899Z,101426.34
2018-02-16T20:37:46.158Z,101429.95
2018-02-16T20:40:15.381Z,101419.17
2018-02-16T20:42:44.384Z,101420.20
2018-02-16T20:45:13.588Z,101420.06
2018-02-16T20:47:44.424Z,101432.78
2018-02-16T20:50:13.562Z,101425.61
2018-02-16T20:52:42.865Z,101426.34
2018-02-16T20:55:12.070Z,101428.09
2018-02-16T20:57:41.534Z,101428.09
2018-02-16T21:00:10.406Z,101427.12
2018-02-16T21:02:39.323Z,101426.47
2018-02-16T21:05:09.068Z,101423.19
2018-02-16T21:07:37.957Z,101424.06
2018-02-16T21:10:09.531Z,101418.20
2018-02-16T21:12:38.603Z,101417.69
2018-02-16T21:15:12.813Z,101419.66
2018-02-16T21:17:43.419Z,101418.53
2018-02-16T21:20:12.538Z,101413.36
2018-02-16T21:22:43.030Z,101411.46
2018-02-16T21:25:12.153Z,101407.11
2018-02-16T21:27:41.006Z,101415.23
2018-02-16T21:30:10.161Z,101413.19
2018-02-16T21:32:39.032Z,101407.52
2018-02-16T21:35:07.979Z,101414.54
2018-02-16T21:37:38.540Z,101412.42
2018-02-16T21:40:07.639Z,101414.30
2018-02-16T21:42:36.503Z,101412.00
2018-02-16T21:45:05.914Z,101406.55
2018-02-16T21:47:34.882Z,101406.84
2018-02-16T21:50:03.814Z,101404.67
2018-02-16T21:52:37.315Z,101402.56
2018-02-16T21:55:06.197Z,101403.97
2018-02-16T21:57:35.144Z,101398.42
2018-02-16T22:00:04.125Z,101397.88
2018-02-16T22:02:32.978Z,101395.08
2018-02-16T22:05:02.682Z,101388.80
2018-02-16T22:07:33.623Z,101383.13
2018-02-16T22:10:02.717Z,101376.81
2018-02-16T22:12:32.569Z,101382.70
2018-02-16T22:15:03.181Z,101386.04
2018-02-16T22:17:33.430Z,101381.54
2018-02-16T22:20:02.501Z,101380.16
2018-02-16T22:22:33.053Z,101373.95
2018-02-16T22:25:04.768Z,101368.48
2018-02-16T22:27:34.925Z,101360.77
2018-02-16T22:30:03.898Z,101354.89
2018-02-16T22:32:33.100Z,101354.25
2018-02-16T22:35:02.924Z,101362.91
2018-02-16T22:37:32.756Z,101371.38
2018-02-16T22:40:01.736Z,101370.17
2018-02-16T22:42:30.897Z,101373.14
2018-02-16T22:44:59.995Z,101386.20
2018-02-16T22:47:28.987Z,101387.55
2018-02-16T22:50:01.572Z,101388.00
2018-02-16T22:52:30.707Z,101383.47
2018-02-16T22:54:59.656Z,101384.38
2018-02-16T22:57:28.893Z,101389.07
2018-02-16T22:59:58.463Z,101384.93
2018-02-16T23:02:27.572Z,101386.86
2018-02-16T23:04:57.880Z,101394.38
2018-02-16T23:07:27.009Z,101393.12
2018-02-16T23:09:56.612Z,101391.58
2018-02-16T23:12:26.502Z,101401.15
2018-02-16T23:14:57.034Z,101408.31
2018-02-16T23:17:26.063Z,101408.87
2018-02-16T23:19:56.692Z,101408.98
2018-02-16T23:22:25.916Z,101403.22
2018-02-16T23:24:55.041Z,101402.55
2018-02-16T23:27:28.254Z,101400.61
2018-02-16T23:29:57.239Z,101392.08
2018-02-16T23:32:26.263Z,101381.59
2018-02-16T23:34:55.301Z,101386.95
2018-02-16T23:37:24.523Z,101396.08
2018-02-16T23:39:53.620Z,101401.17
2018-02-16T23:42:27.284Z,101408.73
2018-02-16T23:44:59.855Z,101410.36
2018-02-16T23:47:29.921Z,101417.20
2018-02-16T23:49:59.715Z,101424.19
2018-02-16T23:52:28.851Z,101431.46
2018-02-16T23:54:57.942Z,101440.34
2018-02-16T23:57:27.020Z,101433.05
2018-02-16T23:59:56.107Z,101434.80
